sensor_id;sensor_type;location;lat;lon;timestamp;temperature;humidity
45785;DHT22;31489;51.404;5.474;2024-03-23T00:55:41;12.10;79.90
45785;DHT22;31489;51.404;5.474;2024-03-23T00:58:08;12.10;80.10
45785;DHT22;31489;51.404;5.474;2024-03-23T01:00:33;12.00;80.00
45785;DHT22;31489;51.404;5.474;2024-03-23T01:02:59;12.00;79.90
45785;DHT22;31489;51.404;5.474;2024-03-23T01:05:25;12.00;79.90
45785;DHT22;31489;51.404;5.474;2024-03-23T01:07:50;11.90;79.80
45785;DHT22;31489;51.404;5.474;2024-03-23T01:10:16;11.90;80.00
45785;DHT22;31489;51.404;5.474;2024-03-23T01:12:42;11.80;80.00
45785;DHT22;31489;51.404;5.474;2024-03-23T01:15:08;11.80;80.10
45785;DHT22;31489;51.404;5.474;2024-03-23T01:17:33;11.70;80.00
45785;DHT22;31489;51.404;5.474;2024-03-23T01:19:59;11.70;80.20
45785;DHT22;31489;51.404;5.474;2024-03-23T01:22:24;11.70;80.30
45785;DHT22;31489;51.404;5.474;2024-03-23T01:24:50;11.60;80.40
45785;DHT22;31489;51.404;5.474;2024-03-23T01:27:16;11.60;80.50
45785;DHT22;31489;51.404;5.474;2024-03-23T01:29:41;11.60;80.60
45785;DHT22;31489;51.404;5.474;2024-03-23T01:32:07;11.60;80.60
45785;DHT22;31489;51.404;5.474;2024-03-23T01:34:33;11.60;80.50
45785;DHT22;31489;51.404;5.474;2024-03-23T01:36:58;11.50;80.50
45785;DHT22;31489;51.404;5.474;2024-03-23T01:39:24;11.50;80.50
45785;DHT22;31489;51.404;5.474;2024-03-23T01:41:50;11.50;80.50
45785;DHT22;31489;51.404;5.474;2024-03-23T01:44:16;11.50;80.60
45785;DHT22;31489;51.404;5.474;2024-03-23T01:46:42;11.40;80.50
45785;DHT22;31489;51.404;5.474;2024-03-23T01:49:09;11.40;80.80
45785;DHT22;31489;51.404;5.474;2024-03-23T01:51:36;11.40;81.00
45785;DHT22;31489;51.404;5.474;2024-03-23T01:54:02;11.40;81.50
45785;DHT22;31489;51.404;5.474;2024-03-23T01:56:33;11.40;80.60
45785;DHT22;31489;51.404;5.474;2024-03-23T01:59:04;11.40;80.40
45785;DHT22;31489;51.404;5.474;2024-03-23T02:01:30;11.30;80.20
45785;DHT22;31489;51.404;5.474;2024-03-23T02:03:56;11.30;80.30
45785;DHT22;31489;51.404;5.474;2024-03-23T02:06:23;11.30;80.30
45785;DHT22;31489;51.404;5.474;2024-03-23T02:08:49;11.20;80.50
45785;DHT22;31489;51.404;5.474;2024-03-23T02:11:15;11.20;80.70
45785;DHT22;31489;51.404;5.474;2024-03-23T02:13:40;11.20;80.90
45785;DHT22;31489;51.404;5.474;2024-03-23T02:16:06;11.10;81.20
45785;DHT22;31489;51.404;5.474;2024-03-23T02:18:32;11.10;81.20
45785;DHT22;31489;51.404;5.474;2024-03-23T02:20:58;11.10;81.00
45785;DHT22;31489;51.404;5.474;2024-03-23T02:23:24;11.10;80.90
45785;DHT22;31489;51.404;5.474;2024-03-23T02:25:50;11.10;80.60
45785;DHT22;31489;51.404;5.474;2024-03-23T02:28:16;11.00;80.60
45785;DHT22;31489;51.404;5.474;2024-03-23T02:30:42;11.00;80.60
45785;DHT22;31489;51.404;5.474;2024-03-23T02:33:08;11.00;80.60
45785;DHT22;31489;51.404;5.474;2024-03-23T02:35:34;10.90;80.50
45785;DHT22;31489;51.404;5.474;2024-03-23T02:37:59;10.90;80.50
45785;DHT22;31489;51.404;5.474;2024-03-23T02:40:25;10.80;80.60
45785;DHT22;31489;51.404;5.474;2024-03-23T02:42:51;10.80;80.70
45785;DHT22;31489;51.404;5.474;2024-03-23T02:45:17;10.70;80.70
45785;DHT22;31489;51.404;5.474;2024-03-23T02:47:42;10.70;80.90
45785;DHT22;31489;51.404;5.474;2024-03-23T02:50:08;10.70;81.20
45785;DHT22;31489;51.404;5.474;2024-03-23T02:52:35;10.60;81.40
45785;DHT22;31489;51.404;5.474;2024-03-23T02:55:00;10.60;81.30
45785;DHT22;31489;51.404;5.474;2024-03-23T02:57:27;10.60;81.30
45785;DHT22;31489;51.404;5.474;2024-03-23T02:59:53;10.60;81.40
45785;DHT22;31489;51.404;5.474;2024-03-23T03:02:20;10.60;81.30
45785;DHT22;31489;51.404;5.474;2024-03-23T03:04:46;10.60;81.30
45785;DHT22;31489;51.404;5.474;2024-03-23T03:07:11;10.60;81.40
45785;DHT22;31489;51.404;5.474;2024-03-23T03:09:37;10.60;81.30
45785;DHT22;31489;51.404;5.474;2024-03-23T03:12:05;10.60;81.40
45785;DHT22;31489;51.404;5.474;2024-03-23T03:14:31;10.60;81.40
45785;DHT22;31489;51.404;5.474;2024-03-23T03:16:56;10.60;81.10
45785;DHT22;31489;51.404;5.474;2024-03-23T03:19:22;10.60;81.10
45785;DHT22;31489;51.404;5.474;2024-03-23T03:21:48;10.60;81.10
45785;DHT22;31489;51.404;5.474;2024-03-23T03:24:14;10.60;81.10
45785;DHT22;31489;51.404;5.474;2024-03-23T03:26:39;10.50;80.90
45785;DHT22;31489;51.404;5.474;2024-03-23T03:29:05;10.50;81.00
45785;DHT22;31489;51.404;5.474;2024-03-23T03:31:31;10.50;81.00
45785;DHT22;31489;51.404;5.474;2024-03-23T03:33:56;10.50;81.10
45785;DHT22;31489;51.404;5.474;2024-03-23T03:36:22;10.40;81.20
45785;DHT22;31489;51.404;5.474;2024-03-23T03:38:48;10.40;81.20
45785;DHT22;31489;51.404;5.474;2024-03-23T03:41:13;10.40;81.00
45785;DHT22;31489;51.404;5.474;2024-03-23T03:43:39;10.40;81.00
45785;DHT22;31489;51.404;5.474;2024-03-23T03:46:05;10.40;80.80
45785;DHT22;31489;51.404;5.474;2024-03-23T03:48:33;10.40;80.80
45785;DHT22;31489;51.404;5.474;2024-03-23T03:50:59;10.40;80.80
45785;DHT22;31489;51.404;5.474;2024-03-23T03:53:25;10.30;80.80
45785;DHT22;31489;51.404;5.474;2024-03-23T03:55:50;10.30;80.80
45785;DHT22;31489;51.404;5.474;2024-03-23T03:58:16;10.30;80.70
45785;DHT22;31489;51.404;5.474;2024-03-23T04:00:41;10.20;80.70
45785;DHT22;31489;51.404;5.474;2024-03-23T04:03:07;10.20;80.70
45785;DHT22;31489;51.404;5.474;2024-03-23T04:05:33;10.20;80.70
45785;DHT22;31489;51.404;5.474;2024-03-23T04:07:58;10.20;80.70
45785;DHT22;31489;51.404;5.474;2024-03-23T04:10:24;10.20;80.70
45785;DHT22;31489;51.404;5.474;2024-03-23T04:12:50;10.10;80.70
45785;DHT22;31489;51.404;5.474;2024-03-23T04:15:16;10.10;80.80
45785;DHT22;31489;51.404;5.474;2024-03-23T04:17:41;10.10;80.80
45785;DHT22;31489;51.404;5.474;2024-03-23T04:20:08;10.00;80.80
45785;DHT22;31489;51.404;5.474;2024-03-23T04:22:37;10.00;80.90
45785;DHT22;31489;51.404;5.474;2024-03-23T04:25:03;10.00;80.90
45785;DHT22;31489;51.404;5.474;2024-03-23T04:27:32;10.00;80.90
45785;DHT22;31489;51.404;5.474;2024-03-23T04:29:58;9.90;80.90
45785;DHT22;31489;51.404;5.474;2024-03-23T04:32:27;9.90;81.00
45785;DHT22;31489;51.404;5.474;2024-03-23T04:34:53;9.90;81.10
45785;DHT22;31489;51.404;5.474;2024-03-23T04:37:20;9.80;81.10
45785;DHT22;31489;51.404;5.474;2024-03-23T04:39:46;9.80;81.10
45785;DHT22;31489;51.404;5.474;2024-03-23T04:42:11;9.80;81.30
45785;DHT22;31489;51.404;5.474;2024-03-23T04:44:37;9.80;81.40
45785;DHT22;31489;51.404;5.474;2024-03-23T04:47:03;9.70;81.40
45785;DHT22;31489;51.404;5.474;2024-03-23T04:49:30;9.70;81.50
45785;DHT22;31489;51.404;5.474;2024-03-23T04:51:56;9.70;81.50
45785;DHT22;31489;51.404;5.474;2024-03-23T04:54:22;9.70;81.50
45785;DHT22;31489;51.404;5.474;2024-03-23T04:56:47;9.70;81.50
45785;DHT22;31489;51.404;5.474;2024-03-23T04:59:13;9.70;81.60
45785;DHT22;31489;51.404;5.474;2024-03-23T05:01:38;9.70;81.60
45785;DHT22;31489;51.404;5.474;2024-03-23T05:04:07;9.70;81.70
45785;DHT22;31489;51.404;5.474;2024-03-23T05:06:33;9.60;81.60
45785;DHT22;31489;51.404;5.474;2024-03-23T05:09:00;9.60;81.70
45785;DHT22;31489;51.404;5.474;2024-03-23T05:11:27;9.60;81.80
45785;DHT22;31489;51.404;5.474;2024-03-23T05:13:52;9.60;81.90
45785;DHT22;31489;51.404;5.474;2024-03-23T05:16:18;9.60;82.00
45785;DHT22;31489;51.404;5.474;2024-03-23T05:18:43;9.50;82.00
45785;DHT22;31489;51.404;5.474;2024-03-23T05:21:09;9.50;82.10
45785;DHT22;31489;51.404;5.474;2024-03-23T05:23:34;9.50;82.10
45785;DHT22;31489;51.404;5.474;2024-03-23T05:26:00;9.50;82.10
45785;DHT22;31489;51.404;5.474;2024-03-23T05:28:26;9.50;82.20
45785;DHT22;31489;51.404;5.474;2024-03-23T05:30:54;9.40;82.20
45785;DHT22;31489;51.404;5.474;2024-03-23T05:33:20;9.40;82.30
45785;DHT22;31489;51.404;5.474;2024-03-23T05:35:46;9.40;82.20
45785;DHT22;31489;51.404;5.474;2024-03-23T05:38:13;9.40;82.20
45785;DHT22;31489;51.404;5.474;2024-03-23T05:40:39;9.40;82.20
45785;DHT22;31489;51.404;5.474;2024-03-23T05:43:06;9.40;82.20
45785;DHT22;31489;51.404;5.474;2024-03-23T05:45:32;9.40;82.10
45785;DHT22;31489;51.404;5.474;2024-03-23T05:47:58;9.40;82.10
45785;DHT22;31489;51.404;5.474;2024-03-23T05:50:24;9.40;82.10
45785;DHT22;31489;51.404;5.474;2024-03-23T05:52:50;9.40;82.10
45785;DHT22;31489;51.404;5.474;2024-03-23T05:55:15;9.40;82.10
45785;DHT22;31489;51.404;5.474;2024-03-23T05:57:41;9.40;82.10
45785;DHT22;31489;51.404;5.474;2024-03-23T06:00:07;9.40;82.20
45785;DHT22;31489;51.404;5.474;2024-03-23T06:02:42;9.40;82.20
45785;DHT22;31489;51.404;5.474;2024-03-23T06:05:10;9.40;82.20
45785;DHT22;31489;51.404;5.474;2024-03-23T06:07:36;9.30;82.10
45785;DHT22;31489;51.404;5.474;2024-03-23T06:10:02;9.40;82.20
45785;DHT22;31489;51.404;5.474;2024-03-23T06:12:27;9.30;82.20
45785;DHT22;31489;51.404;5.474;2024-03-23T06:14:53;9.40;82.20
45785;DHT22;31489;51.404;5.474;2024-03-23T06:17:18;9.30;82.20
45785;DHT22;31489;51.404;5.474;2024-03-23T06:19:44;9.30;82.20
45785;DHT22;31489;51.404;5.474;2024-03-23T06:22:10;9.30;82.30
45785;DHT22;31489;51.404;5.474;2024-03-23T06:24:35;9.40;82.40
45785;DHT22;31489;51.404;5.474;2024-03-23T06:27:01;9.40;82.40
45785;DHT22;31489;51.404;5.474;2024-03-23T06:29:27;9.30;82.30
45785;DHT22;31489;51.404;5.474;2024-03-23T06:31:54;9.40;82.40
45785;DHT22;31489;51.404;5.474;2024-03-23T06:34:20;9.40;82.60
45785;DHT22;31489;51.404;5.474;2024-03-23T06:36:47;9.40;82.70
45785;DHT22;31489;51.404;5.474;2024-03-23T06:39:12;9.40;82.80
45785;DHT22;31489;51.404;5.474;2024-03-23T06:41:51;9.50;82.80
45785;DHT22;31489;51.404;5.474;2024-03-23T06:44:18;9.50;82.80
45785;DHT22;31489;51.404;5.474;2024-03-23T06:46:43;9.50;82.80
45785;DHT22;31489;51.404;5.474;2024-03-23T06:49:10;9.50;83.00
45785;DHT22;31489;51.404;5.474;2024-03-23T06:51:35;9.50;83.20
45785;DHT22;31489;51.404;5.474;2024-03-23T06:54:02;9.60;83.40
45785;DHT22;31489;51.404;5.474;2024-03-23T06:56:29;9.60;83.30
45785;DHT22;31489;51.404;5.474;2024-03-23T06:58:54;9.60;83.20
45785;DHT22;31489;51.404;5.474;2024-03-23T07:01:20;9.70;83.10
45785;DHT22;31489;51.404;5.474;2024-03-23T07:03:46;9.80;83.00
45785;DHT22;31489;51.404;5.474;2024-03-23T07:06:12;9.80;83.00
45785;DHT22;31489;51.404;5.474;2024-03-23T07:08:37;9.80;82.90
45785;DHT22;31489;51.404;5.474;2024-03-23T07:11:03;9.90;82.60
45785;DHT22;31489;51.404;5.474;2024-03-23T07:13:30;9.90;82.40
45785;DHT22;31489;51.404;5.474;2024-03-23T07:15:56;9.90;82.20
45785;DHT22;31489;51.404;5.474;2024-03-23T07:18:23;9.90;82.20
45785;DHT22;31489;51.404;5.474;2024-03-23T07:20:55;10.00;82.20
45785;DHT22;31489;51.404;5.474;2024-03-23T07:23:25;9.90;82.10
45785;DHT22;31489;51.404;5.474;2024-03-23T07:26:04;10.00;82.20
45785;DHT22;31489;51.404;5.474;2024-03-23T07:28:31;10.00;82.30
45785;DHT22;31489;51.404;5.474;2024-03-23T07:31:09;10.00;82.40
45785;DHT22;31489;51.404;5.474;2024-03-23T07:33:36;10.00;82.50
45785;DHT22;31489;51.404;5.474;2024-03-23T07:36:02;10.00;82.40
45785;DHT22;31489;51.404;5.474;2024-03-23T07:38:28;10.00;82.60
45785;DHT22;31489;51.404;5.474;2024-03-23T07:41:10;10.00;83.10
45785;DHT22;31489;51.404;5.474;2024-03-23T07:43:38;10.00;82.60
45785;DHT22;31489;51.404;5.474;2024-03-23T07:46:04;10.10;82.80
45785;DHT22;31489;51.404;5.474;2024-03-23T07:48:30;10.10;82.80
45785;DHT22;31489;51.404;5.474;2024-03-23T07:51:04;10.10;82.60
45785;DHT22;31489;51.404;5.474;2024-03-23T07:53:31;10.20;82.60
45785;DHT22;31489;51.404;5.474;2024-03-23T07:55:58;10.20;82.70
45785;DHT22;31489;51.404;5.474;2024-03-23T07:58:25;10.20;82.40
45785;DHT22;31489;51.404;5.474;2024-03-23T08:00:50;10.20;82.30
45785;DHT22;31489;51.404;5.474;2024-03-23T08:03:16;10.30;82.40
45785;DHT22;31489;51.404;5.474;2024-03-23T08:05:42;10.30;82.10
45785;DHT22;31489;51.404;5.474;2024-03-23T08:08:07;10.40;82.10
45785;DHT22;31489;51.404;5.474;2024-03-23T08:10:33;10.40;82.10
45785;DHT22;31489;51.404;5.474;2024-03-23T08:13:00;10.40;82.20
45785;DHT22;31489;51.404;5.474;2024-03-23T08:15:25;10.50;81.90
45785;DHT22;31489;51.404;5.474;2024-03-23T08:17:51;10.50;81.80
45785;DHT22;31489;51.404;5.474;2024-03-23T08:20:16;10.50;81.70
45785;DHT22;31489;51.404;5.474;2024-03-23T08:22:42;10.60;81.20
45785;DHT22;31489;51.404;5.474;2024-03-23T08:25:08;10.60;81.00
45785;DHT22;31489;51.404;5.474;2024-03-23T08:27:33;10.70;81.20
45785;DHT22;31489;51.404;5.474;2024-03-23T08:29:59;10.70;81.30
45785;DHT22;31489;51.404;5.474;2024-03-23T08:32:24;10.70;81.10
45785;DHT22;31489;51.404;5.474;2024-03-23T08:34:50;10.70;80.50
45785;DHT22;31489;51.404;5.474;2024-03-23T08:37:15;10.80;80.50
45785;DHT22;31489;51.404;5.474;2024-03-23T08:39:43;10.80;80.50
45785;DHT22;31489;51.404;5.474;2024-03-23T08:42:09;10.90;79.90
45785;DHT22;31489;51.404;5.474;2024-03-23T08:44:34;10.90;80.10
45785;DHT22;31489;51.404;5.474;2024-03-23T08:47:01;10.90;79.90
45785;DHT22;31489;51.404;5.474;2024-03-23T08:49:26;11.00;79.40
45785;DHT22;31489;51.404;5.474;2024-03-23T08:51:52;11.00;79.40
45785;DHT22;31489;51.404;5.474;2024-03-23T08:54:19;11.00;79.60
45785;DHT22;31489;51.404;5.474;2024-03-23T08:56:45;11.00;79.30
45785;DHT22;31489;51.404;5.474;2024-03-23T08:59:11;11.10;78.90
45785;DHT22;31489;51.404;5.474;2024-03-23T09:01:37;11.10;78.40
45785;DHT22;31489;51.404;5.474;2024-03-23T09:04:03;11.20;78.90
45785;DHT22;31489;51.404;5.474;2024-03-23T09:06:29;11.20;78.90
45785;DHT22;31489;51.404;5.474;2024-03-23T09:08:55;11.30;79.10
45785;DHT22;31489;51.404;5.474;2024-03-23T09:11:21;11.30;78.70
45785;DHT22;31489;51.404;5.474;2024-03-23T09:13:46;11.30;79.30
45785;DHT22;31489;51.404;5.474;2024-03-23T09:16:12;11.40;79.30
45785;DHT22;31489;51.404;5.474;2024-03-23T09:18:38;11.50;78.90
45785;DHT22;31489;51.404;5.474;2024-03-23T09:21:04;11.60;77.40
45785;DHT22;31489;51.404;5.474;2024-03-23T09:23:36;11.60;76.80
45785;DHT22;31489;51.404;5.474;2024-03-23T09:26:05;11.60;76.20
45785;DHT22;31489;51.404;5.474;2024-03-23T09:28:33;11.50;75.50
45785;DHT22;31489;51.404;5.474;2024-03-23T09:31:05;11.40;75.50
45785;DHT22;31489;51.404;5.474;2024-03-23T09:33:33;11.40;74.80
45785;DHT22;31489;51.404;5.474;2024-03-23T09:36:05;11.30;75.20
45785;DHT22;31489;51.404;5.474;2024-03-23T09:38:32;11.10;74.80
45785;DHT22;31489;51.404;5.474;2024-03-23T09:40:58;11.10;75.50
45785;DHT22;31489;51.404;5.474;2024-03-23T09:43:24;11.00;75.70
45785;DHT22;31489;51.404;5.474;2024-03-23T09:45:50;10.90;76.00
45785;DHT22;31489;51.404;5.474;2024-03-23T09:48:16;11.00;76.40
45785;DHT22;31489;51.404;5.474;2024-03-23T09:50:43;10.90;76.50
45785;DHT22;31489;51.404;5.474;2024-03-23T09:53:11;11.00;77.20
45785;DHT22;31489;51.404;5.474;2024-03-23T09:55:37;11.10;77.70
45785;DHT22;31489;51.404;5.474;2024-03-23T09:58:04;11.20;78.10
45785;DHT22;31489;51.404;5.474;2024-03-23T10:00:34;11.30;78.30
45785;DHT22;31489;51.404;5.474;2024-03-23T10:03:00;11.40;77.40
45785;DHT22;31489;51.404;5.474;2024-03-23T10:05:30;11.50;77.10
45785;DHT22;31489;51.404;5.474;2024-03-23T10:10:43;11.70;77.20
45785;DHT22;31489;51.404;5.474;2024-03-23T10:13:10;11.70;75.90
45785;DHT22;31489;51.404;5.474;2024-03-23T10:15:36;11.70;75.40
45785;DHT22;31489;51.404;5.474;2024-03-23T10:18:18;11.70;75.00
45785;DHT22;31489;51.404;5.474;2024-03-23T10:20:51;11.60;74.20
45785;DHT22;31489;51.404;5.474;2024-03-23T10:23:17;11.50;74.70
45785;DHT22;31489;51.404;5.474;2024-03-23T10:25:43;11.40;75.10
45785;DHT22;31489;51.404;5.474;2024-03-23T10:28:08;11.30;75.20
45785;DHT22;31489;51.404;5.474;2024-03-23T10:30:35;11.30;75.20
45785;DHT22;31489;51.404;5.474;2024-03-23T10:33:10;11.40;76.70
45785;DHT22;31489;51.404;5.474;2024-03-23T10:35:37;11.70;76.60
45785;DHT22;31489;51.404;5.474;2024-03-23T10:38:06;12.00;78.30
45785;DHT22;31489;51.404;5.474;2024-03-23T10:40:34;12.40;78.80
45785;DHT22;31489;51.404;5.474;2024-03-23T10:43:00;12.80;77.40
45785;DHT22;31489;51.404;5.474;2024-03-23T10:45:28;13.10;75.90
45785;DHT22;31489;51.404;5.474;2024-03-23T10:47:54;13.30;74.20
45785;DHT22;31489;51.404;5.474;2024-03-23T10:50:19;13.30;73.30
45785;DHT22;31489;51.404;5.474;2024-03-23T10:52:49;13.20;71.80
45785;DHT22;31489;51.404;5.474;2024-03-23T10:55:17;13.00;71.20
45785;DHT22;31489;51.404;5.474;2024-03-23T10:57:55;12.80;73.80
45785;DHT22;31489;51.404;5.474;2024-03-23T11:00:21;12.80;75.50
45785;DHT22;31489;51.404;5.474;2024-03-23T11:02:48;12.90;78.00
45785;DHT22;31489;51.404;5.474;2024-03-23T11:07:52;13.20;75.00
45785;DHT22;31489;51.404;5.474;2024-03-23T11:10:26;13.30;74.10
45785;DHT22;31489;51.404;5.474;2024-03-23T11:12:54;13.20;72.40
45785;DHT22;31489;51.404;5.474;2024-03-23T11:15:20;13.10;72.40
45785;DHT22;31489;51.404;5.474;2024-03-23T11:18:05;12.90;71.90
45785;DHT22;31489;51.404;5.474;2024-03-23T11:20:33;12.60;71.80
45785;DHT22;31489;51.404;5.474;2024-03-23T11:22:59;12.50;72.20
45785;DHT22;31489;51.404;5.474;2024-03-23T11:25:26;12.30;71.10
45785;DHT22;31489;51.404;5.474;2024-03-23T11:27:55;12.00;70.80
45785;DHT22;31489;51.404;5.474;2024-03-23T11:30:26;11.80;70.70
45785;DHT22;31489;51.404;5.474;2024-03-23T11:32:55;11.70;72.40
45785;DHT22;31489;51.404;5.474;2024-03-23T11:35:34;11.80;74.20
45785;DHT22;31489;51.404;5.474;2024-03-23T11:40:29;12.30;74.60
45785;DHT22;31489;51.404;5.474;2024-03-23T11:43:21;12.50;72.90
45785;DHT22;31489;51.404;5.474;2024-03-23T11:45:49;12.50;71.40
45785;DHT22;31489;51.404;5.474;2024-03-23T11:48:22;12.60;71.00
45785;DHT22;31489;51.404;5.474;2024-03-23T11:50:53;12.40;70.00
45785;DHT22;31489;51.404;5.474;2024-03-23T11:53:21;12.30;70.10
45785;DHT22;31489;51.404;5.474;2024-03-23T11:55:55;12.20;70.60
45785;DHT22;31489;51.404;5.474;2024-03-23T11:58:25;12.10;70.80
45785;DHT22;31489;51.404;5.474;2024-03-23T12:00:58;12.00;70.80
45785;DHT22;31489;51.404;5.474;2024-03-23T12:03:25;11.70;70.20
45785;DHT22;31489;51.404;5.474;2024-03-23T12:05:55;11.50;70.60
45785;DHT22;31489;51.404;5.474;2024-03-23T12:08:32;11.30;71.00
45785;DHT22;31489;51.404;5.474;2024-03-23T12:11:11;11.10;71.20
45785;DHT22;31489;51.404;5.474;2024-03-23T12:13:38;10.80;71.30
45785;DHT22;31489;51.404;5.474;2024-03-23T12:16:16;10.60;72.50
45785;DHT22;31489;51.404;5.474;2024-03-23T12:18:43;10.40;74.40
45785;DHT22;31489;51.404;5.474;2024-03-23T12:21:09;10.40;76.60
45785;DHT22;31489;51.404;5.474;2024-03-23T12:23:35;10.50;77.20
45785;DHT22;31489;51.404;5.474;2024-03-23T12:26:02;10.70;77.80
45785;DHT22;31489;51.404;5.474;2024-03-23T12:28:28;11.00;77.80
45785;DHT22;31489;51.404;5.474;2024-03-23T12:30:54;11.30;79.00
45785;DHT22;31489;51.404;5.474;2024-03-23T12:33:20;11.60;78.00
45785;DHT22;31489;51.404;5.474;2024-03-23T12:35:46;11.90;77.50
45785;DHT22;31489;51.404;5.474;2024-03-23T12:38:12;12.20;76.90
45785;DHT22;31489;51.404;5.474;2024-03-23T12:40:38;12.40;76.70
45785;DHT22;31489;51.404;5.474;2024-03-23T12:43:03;12.60;74.50
45785;DHT22;31489;51.404;5.474;2024-03-23T12:45:33;12.80;74.20
45785;DHT22;31489;51.404;5.474;2024-03-23T12:47:58;12.90;73.80
45785;DHT22;31489;51.404;5.474;2024-03-23T12:50:26;13.10;72.30
45785;DHT22;31489;51.404;5.474;2024-03-23T12:52:52;13.20;71.80
45785;DHT22;31489;51.404;5.474;2024-03-23T12:55:17;13.30;71.70
45785;DHT22;31489;51.404;5.474;2024-03-23T12:57:43;13.40;70.70
45785;DHT22;31489;51.404;5.474;2024-03-23T13:00:09;13.40;70.50
45785;DHT22;31489;51.404;5.474;2024-03-23T13:02:38;13.40;69.50
45785;DHT22;31489;51.404;5.474;2024-03-23T13:05:05;13.40;69.20
45785;DHT22;31489;51.404;5.474;2024-03-23T13:07:31;13.30;68.40
45785;DHT22;31489;51.404;5.474;2024-03-23T13:09:56;13.20;68.30
45785;DHT22;31489;51.404;5.474;2024-03-23T13:12:23;13.20;68.00
45785;DHT22;31489;51.404;5.474;2024-03-23T13:14:48;13.10;68.30
45785;DHT22;31489;51.404;5.474;2024-03-23T13:17:14;13.10;68.80
45785;DHT22;31489;51.404;5.474;2024-03-23T13:19:40;13.20;68.90
45785;DHT22;31489;51.404;5.474;2024-03-23T13:22:06;13.30;69.20
45785;DHT22;31489;51.404;5.474;2024-03-23T13:24:32;13.40;69.20
45785;DHT22;31489;51.404;5.474;2024-03-23T13:26:58;13.60;69.40
45785;DHT22;31489;51.404;5.474;2024-03-23T13:29:24;13.70;69.40
45785;DHT22;31489;51.404;5.474;2024-03-23T13:31:51;13.80;68.90
45785;DHT22;31489;51.404;5.474;2024-03-23T13:34:17;13.90;68.30
45785;DHT22;31489;51.404;5.474;2024-03-23T13:36:47;14.00;68.50
45785;DHT22;31489;51.404;5.474;2024-03-23T13:39:14;13.90;67.80
45785;DHT22;31489;51.404;5.474;2024-03-23T13:41:41;13.90;67.30
45785;DHT22;31489;51.404;5.474;2024-03-23T13:44:07;13.80;67.30
45785;DHT22;31489;51.404;5.474;2024-03-23T13:46:33;13.60;66.90
45785;DHT22;31489;51.404;5.474;2024-03-23T13:48:59;13.60;67.20
45785;DHT22;31489;51.404;5.474;2024-03-23T13:51:26;13.40;67.50
45785;DHT22;31489;51.404;5.474;2024-03-23T13:53:55;13.30;68.70
45785;DHT22;31489;51.404;5.474;2024-03-23T13:56:30;13.20;68.20
45785;DHT22;31489;51.404;5.474;2024-03-23T13:58:56;13.10;69.10
45785;DHT22;31489;51.404;5.474;2024-03-23T14:01:22;13.00;69.10
45785;DHT22;31489;51.404;5.474;2024-03-23T14:03:48;12.90;69.80
45785;DHT22;31489;51.404;5.474;2024-03-23T14:06:14;12.70;70.30
45785;DHT22;31489;51.404;5.474;2024-03-23T14:08:40;12.60;70.40
45785;DHT22;31489;51.404;5.474;2024-03-23T14:11:06;12.60;70.70
45785;DHT22;31489;51.404;5.474;2024-03-23T14:13:32;12.50;70.60
45785;DHT22;31489;51.404;5.474;2024-03-23T14:15:58;12.40;71.10
45785;DHT22;31489;51.404;5.474;2024-03-23T14:18:24;12.40;71.50
45785;DHT22;31489;51.404;5.474;2024-03-23T14:20:51;12.30;71.30
45785;DHT22;31489;51.404;5.474;2024-03-23T14:23:17;12.30;71.60
45785;DHT22;31489;51.404;5.474;2024-03-23T14:25:43;12.30;70.40
45785;DHT22;31489;51.404;5.474;2024-03-23T14:28:09;12.30;70.30
45785;DHT22;31489;51.404;5.474;2024-03-23T14:30:40;12.40;69.90
45785;DHT22;31489;51.404;5.474;2024-03-23T14:33:06;12.40;70.20
45785;DHT22;31489;51.404;5.474;2024-03-23T14:35:31;12.40;69.90
45785;DHT22;31489;51.404;5.474;2024-03-23T14:37:58;12.40;69.90
45785;DHT22;31489;51.404;5.474;2024-03-23T14:40:24;12.50;69.60
45785;DHT22;31489;51.404;5.474;2024-03-23T14:42:53;12.50;69.70
45785;DHT22;31489;51.404;5.474;2024-03-23T14:45:20;12.60;70.00
45785;DHT22;31489;51.404;5.474;2024-03-23T14:47:46;12.70;70.30
45785;DHT22;31489;51.404;5.474;2024-03-23T14:50:12;12.90;70.70
45785;DHT22;31489;51.404;5.474;2024-03-23T14:52:41;13.00;69.30
45785;DHT22;31489;51.404;5.474;2024-03-23T14:55:07;13.10;69.40
45785;DHT22;31489;51.404;5.474;2024-03-23T14:57:34;13.20;68.60
45785;DHT22;31489;51.404;5.474;2024-03-23T15:00:00;13.30;68.90
45785;DHT22;31489;51.404;5.474;2024-03-23T15:02:26;13.40;68.40
45785;DHT22;31489;51.404;5.474;2024-03-23T15:04:54;13.40;68.30
45785;DHT22;31489;51.404;5.474;2024-03-23T15:07:19;13.40;68.10
45785;DHT22;31489;51.404;5.474;2024-03-23T15:09:45;13.40;68.00
45785;DHT22;31489;51.404;5.474;2024-03-23T15:12:10;13.40;67.80
45785;DHT22;31489;51.404;5.474;2024-03-23T15:14:37;13.40;68.00
45785;DHT22;31489;51.404;5.474;2024-03-23T15:17:03;13.40;68.20
45785;DHT22;31489;51.404;5.474;2024-03-23T15:19:32;13.50;68.10
45785;DHT22;31489;51.404;5.474;2024-03-23T15:21:58;13.50;67.80
45785;DHT22;31489;51.404;5.474;2024-03-23T15:24:23;13.60;67.80
45785;DHT22;31489;51.404;5.474;2024-03-23T15:26:49;13.60;67.50
45785;DHT22;31489;51.404;5.474;2024-03-23T15:29:17;13.60;67.10
45785;DHT22;31489;51.404;5.474;2024-03-23T15:31:43;13.60;67.20
45785;DHT22;31489;51.404;5.474;2024-03-23T15:34:11;13.60;66.80
45785;DHT22;31489;51.404;5.474;2024-03-23T15:36:37;13.60;66.00
45785;DHT22;31489;51.404;5.474;2024-03-23T15:39:06;13.60;66.20
45785;DHT22;31489;51.404;5.474;2024-03-23T15:41:34;13.50;66.30
45785;DHT22;31489;51.404;5.474;2024-03-23T15:44:01;13.40;65.30
45785;DHT22;31489;51.404;5.474;2024-03-23T15:46:27;13.30;65.00
45785;DHT22;31489;51.404;5.474;2024-03-23T15:48:53;13.10;65.20
45785;DHT22;31489;51.404;5.474;2024-03-23T15:51:20;12.90;65.10
45785;DHT22;31489;51.404;5.474;2024-03-23T15:53:45;12.70;65.30
45785;DHT22;31489;51.404;5.474;2024-03-23T15:56:11;12.40;65.20
45785;DHT22;31489;51.404;5.474;2024-03-23T15:58:38;12.20;65.80
45785;DHT22;31489;51.404;5.474;2024-03-23T16:01:06;12.00;65.70
45785;DHT22;31489;51.404;5.474;2024-03-23T16:03:36;11.80;65.90
45785;DHT22;31489;51.404;5.474;2024-03-23T16:06:04;11.70;66.70
45785;DHT22;31489;51.404;5.474;2024-03-23T16:08:30;11.60;66.80
45785;DHT22;31489;51.404;5.474;2024-03-23T16:11:06;11.50;67.10
45785;DHT22;31489;51.404;5.474;2024-03-23T16:13:33;11.40;66.70
45785;DHT22;31489;51.404;5.474;2024-03-23T16:16:03;11.30;68.00
45785;DHT22;31489;51.404;5.474;2024-03-23T16:18:32;11.20;69.10
45785;DHT22;31489;51.404;5.474;2024-03-23T16:21:02;11.10;69.10
45785;DHT22;31489;51.404;5.474;2024-03-23T16:23:28;11.00;69.40
45785;DHT22;31489;51.404;5.474;2024-03-23T16:25:55;10.80;69.80
45785;DHT22;31489;51.404;5.474;2024-03-23T16:28:25;10.70;70.70
45785;DHT22;31489;51.404;5.474;2024-03-23T16:31:04;10.50;71.10
45785;DHT22;31489;51.404;5.474;2024-03-23T16:33:32;10.30;71.60